Time;durP1;ratioP1;P1;durP2;ratioP2;P2;SDS_P1;SDS_P2;PMS_P1;PMS_P2;Temp;Humidity;BMP_temperature;BMP_pressure;BME280_temperature;BME280_humidity;BME280_pressure;Samples;Min_cycle;Max_cycle;Signal;HPM_P1;HPM_P2
2021/05/18 00:00:31;;;;;;;13.75;6.07;;;12.20;99.90;;;;;;5054240;28;20177;-88
2021/05/18 00:02:57;;;;;;;30.00;7.40;;;12.30;99.90;;;;;;5054194;28;20167;-90
2021/05/18 00:05:24;;;;;;;30.30;6.82;;;12.30;99.90;;;;;;5054196;28;20663;-90
2021/05/18 00:07:59;;;;;;;22.45;6.82;;;12.30;99.90;;;;;;5054055;28;20179;-89
2021/05/18 00:13:13;;;;;;;30.83;7.85;;;12.30;99.90;;;;;;5055632;28;20305;-89
2021/05/18 00:15:39;;;;;;;22.98;5.72;;;12.30;99.90;;;;;;5054588;28;20261;-90
2021/05/18 00:18:05;;;;;;;20.70;6.78;;;12.20;99.90;;;;;;5054439;28;20617;-89
2021/05/18 00:20:35;;;;;;;22.85;6.68;;;12.10;99.90;;;;;;5055181;28;20171;-88
2021/05/18 00:23:05;;;;;;;24.98;6.68;;;12.10;99.90;;;;;;5054275;28;20175;-89
2021/05/18 00:25:31;;;;;;;26.25;6.57;;;12.10;99.90;;;;;;5054269;28;20190;-89
2021/05/18 00:27:57;;;;;;;28.58;8.38;;;12.20;99.90;;;;;;5037332;28;20589;-88
2021/05/18 00:30:24;;;;;;;28.23;6.80;;;12.20;99.90;;;;;;5055339;28;20575;-89
2021/05/18 00:32:50;;;;;;;19.05;5.57;;;12.20;99.90;;;;;;5053762;28;20167;-88
2021/05/18 00:35:16;;;;;;;28.55;7.05;;;12.20;99.90;;;;;;5053963;28;20174;-89
2021/05/18 00:37:42;;;;;;;33.80;6.78;;;12.30;99.90;;;;;;5053806;28;20282;-89
2021/05/18 00:40:11;;;;;;;21.40;6.20;;;12.20;99.90;;;;;;5053512;28;20629;-90
2021/05/18 00:42:46;;;;;;;21.27;6.25;;;12.20;99.90;;;;;;5053455;28;20197;-88
2021/05/18 00:45:13;;;;;;;35.10;6.70;;;12.20;99.90;;;;;;5054788;28;20195;-89
2021/05/18 00:47:39;;;;;;;17.58;5.32;;;12.20;99.90;;;;;;5053154;28;20513;-89
2021/05/18 00:50:05;;;;;;;20.70;6.70;;;12.20;99.90;;;;;;5060080;28;20217;-89
2021/05/18 00:52:30;;;;;;;25.20;6.50;;;12.20;99.90;;;;;;5052162;28;20172;-89
2021/05/18 00:55:06;;;;;;;22.80;6.03;;;12.20;99.90;;;;;;5067479;28;20187;-89
2021/05/18 01:00:18;;;;;;;22.10;6.57;;;12.30;99.90;;;;;;5034502;28;20250;-87
2021/05/18 01:02:48;;;;;;;20.20;6.20;;;12.20;99.90;;;;;;5048517;28;20605;-88
2021/05/18 01:05:20;;;;;;;23.90;6.10;;;12.30;99.90;;;;;;5067196;28;20318;-88
2021/05/18 01:07:49;;;;;;;29.23;6.35;;;12.20;99.90;;;;;;5063938;28;20170;-86
2021/05/18 01:10:16;;;;;;;24.08;6.50;;;12.20;99.90;;;;;;5057177;28;20246;-88
2021/05/18 01:12:43;;;;;;;25.20;6.65;;;12.10;99.90;;;;;;5067184;28;20215;-88
2021/05/18 01:15:11;;;;;;;25.75;7.40;;;12.00;99.90;;;;;;5052781;28;20183;-89
2021/05/18 01:17:37;;;;;;;27.75;6.28;;;12.00;99.90;;;;;;5054129;28;20171;-88
2021/05/18 01:20:13;;;;;;;27.73;6.63;;;12.10;99.90;;;;;;5054050;28;20241;-88
2021/05/18 01:22:47;;;;;;;31.20;6.43;;;12.10;99.90;;;;;;5036984;28;20171;-89
2021/05/18 01:25:14;;;;;;;27.48;6.55;;;12.10;99.90;;;;;;5056542;28;20764;-89
2021/05/18 01:27:40;;;;;;;20.85;6.38;;;12.20;99.90;;;;;;5056937;28;20532;-88
2021/05/18 01:30:07;;;;;;;34.03;6.55;;;12.20;99.90;;;;;;5056846;28;20225;-88
2021/05/18 01:32:34;;;;;;;27.75;6.55;;;12.10;99.90;;;;;;5057233;28;20179;-88
2021/05/18 01:35:00;;;;;;;24.52;6.88;;;12.20;99.90;;;;;;5056891;28;20172;-88
2021/05/18 01:37:26;;;;;;;26.25;6.88;;;12.20;99.90;;;;;;5057695;28;20199;-87
2021/05/18 01:42:53;;;;;;;33.55;7.35;;;12.00;99.90;;;;;;5019706;28;20541;-88
2021/05/18 01:45:22;;;;;;;34.60;7.78;;;12.10;99.90;;;;;;5056447;28;20188;-88
2021/05/18 01:47:51;;;;;;;31.42;8.32;;;12.00;99.90;;;;;;5055702;28;20197;-88
2021/05/18 01:50:19;;;;;;;39.60;8.05;;;12.10;99.90;;;;;;5055867;28;20167;-87
2021/05/18 01:52:45;;;;;;;34.47;8.02;;;12.10;99.90;;;;;;5039657;28;20689;-89
2021/05/18 01:55:16;;;;;;;35.72;8.52;;;12.10;99.90;;;;;;5056687;28;20179;-88
2021/05/18 01:57:43;;;;;;;27.80;7.43;;;12.10;99.90;;;;;;5056255;28;20360;-88
2021/05/18 02:00:12;;;;;;;27.95;7.32;;;12.10;99.90;;;;;;5056120;28;20179;-88
2021/05/18 02:02:38;;;;;;;36.75;7.95;;;12.10;99.90;;;;;;5055932;28;20254;-88
2021/05/18 02:05:09;;;;;;;29.70;8.15;;;12.00;99.90;;;;;;5056578;28;20202;-88
2021/05/18 02:07:37;;;;;;;31.98;8.25;;;12.10;99.90;;;;;;5055750;28;20176;-87
2021/05/18 02:10:09;;;;;;;41.83;7.88;;;12.10;99.90;;;;;;5055919;28;20278;-88
2021/05/18 02:12:35;;;;;;;40.97;9.23;;;12.20;99.90;;;;;;5057251;28;20169;-88
2021/05/18 02:15:10;;;;;;;30.67;7.63;;;12.20;99.90;;;;;;5055979;28;20168;-88
2021/05/18 02:17:43;;;;;;;29.38;7.63;;;12.10;99.90;;;;;;5055885;28;20164;-88
2021/05/18 02:25:24;;;;;;;30.23;7.82;;;12.30;99.90;;;;;;5056453;28;20290;-87
2021/05/18 02:27:51;;;;;;;30.08;7.45;;;12.30;99.90;;;;;;5055615;28;20172;-88
2021/05/18 02:30:18;;;;;;;32.47;8.50;;;12.20;99.90;;;;;;5039039;28;20179;-88
2021/05/18 02:32:44;;;;;;;41.95;9.45;;;12.30;99.90;;;;;;5054842;28;20595;-88
2021/05/18 02:35:13;;;;;;;38.63;9.13;;;12.30;99.90;;;;;;5053966;28;20171;-89
2021/05/18 02:37:40;;;;;;;28.40;9.35;;;12.30;99.90;;;;;;5056520;28;20179;-88
2021/05/18 02:40:08;;;;;;;32.47;8.65;;;12.40;99.90;;;;;;5055097;28;20176;-88
2021/05/18 02:42:34;;;;;;;28.92;9.07;;;12.40;99.90;;;;;;5055573;28;20205;-88
2021/05/18 02:45:07;;;;;;;32.08;8.55;;;12.30;99.90;;;;;;5054832;28;20241;-88
2021/05/18 02:50:17;;;;;;;35.75;9.27;;;12.30;99.90;;;;;;5051512;28;20167;-88
2021/05/18 02:52:43;;;;;;;38.85;8.75;;;12.30;99.90;;;;;;5038900;28;20179;-88
2021/05/18 02:55:16;;;;;;;54.78;9.48;;;12.20;99.90;;;;;;5054668;28;20175;-88
2021/05/18 02:57:43;;;;;;;26.15;8.57;;;12.30;99.90;;;;;;5056353;28;20179;-89
2021/05/18 03:00:15;;;;;;;38.08;8.50;;;12.30;99.90;;;;;;5054861;28;20178;-88
2021/05/18 03:02:41;;;;;;;30.00;8.77;;;12.30;99.90;;;;;;5054767;28;20175;-89
2021/05/18 03:05:08;;;;;;;34.85;8.85;;;12.30;99.90;;;;;;5055122;28;20178;-88
2021/05/18 03:07:34;;;;;;;35.55;9.52;;;12.30;99.90;;;;;;5054574;28;20171;-88
2021/05/18 03:10:01;;;;;;;29.75;8.85;;;12.40;99.90;;;;;;5038787;28;20640;-89
2021/05/18 03:12:28;;;;;;;34.05;9.07;;;12.50;99.90;;;;;;5054732;28;20521;-89
2021/05/18 03:14:54;;;;;;;30.48;9.23;;;12.60;99.90;;;;;;5055080;28;20180;-88
2021/05/18 03:17:20;;;;;;;35.30;8.30;;;12.70;99.90;;;;;;5056168;28;20198;-89
2021/05/18 03:19:45;;;;;;;34.05;9.30;;;12.80;99.90;;;;;;5067227;28;20234;-88
2021/05/18 03:22:11;;;;;;;21.50;7.88;;;12.70;99.90;;;;;;5072836;28;20196;-88
2021/05/18 03:24:41;;;;;;;32.83;8.85;;;12.70;99.90;;;;;;5071291;28;20202;-88
2021/05/18 03:27:08;;;;;;;39.97;8.88;;;12.70;99.90;;;;;;5055608;28;20656;-89
2021/05/18 03:29:34;;;;;;;22.80;7.47;;;12.60;99.90;;;;;;5056239;28;20198;-88
2021/05/18 03:34:44;;;;;;;29.73;7.90;;;12.30;99.90;;;;;;5055874;28;20272;-88
2021/05/18 03:39:47;;;;;;;31.25;9.18;;;12.20;99.90;;;;;;5070355;28;20196;-88
2021/05/18 03:42:19;;;;;;;31.67;8.95;;;12.20;99.90;;;;;;5066230;28;20218;-89
2021/05/18 04:03:50;;;;;;;30.25;8.52;;;12.20;99.90;;;;;;5055321;28;20254;-89
2021/05/18 04:11:53;;;;;;;27.88;7.82;;;12.30;99.90;;;;;;5055808;28;20155;-89
2021/05/18 04:17:14;;;;;;;22.48;7.50;;;12.40;99.90;;;;;;5038262;28;20176;-89
2021/05/18 04:19:51;;;;;;;30.50;7.65;;;12.50;99.90;;;;;;5045590;28;20175;-88
2021/05/18 04:41:23;;;;;;;33.53;8.43;;;12.60;99.90;;;;;;5054572;28;20250;-88
2021/05/18 04:51:51;;;;;;;32.90;8.20;;;12.80;99.90;;;;;;5039619;28;20199;-89
2021/05/18 05:08:07;;;;;;;32.70;9.48;;;13.20;99.90;;;;;;5053935;28;20183;-88
2021/05/18 05:15:38;;;;;;;33.65;7.68;;;13.10;99.90;;;;;;5053932;28;20164;-88
2021/05/18 05:18:04;;;;;;;21.65;7.35;;;13.00;99.90;;;;;;5054166;28;20167;-88
2021/05/18 05:20:30;;;;;;;17.27;6.35;;;13.10;99.90;;;;;;5052904;28;20178;-89
2021/05/18 05:22:56;;;;;;;20.90;6.38;;;13.20;99.90;;;;;;5053520;28;20163;-89
2021/05/18 05:25:22;;;;;;;18.15;6.78;;;13.30;99.90;;;;;;5054005;28;20210;-89
2021/05/18 05:27:48;;;;;;;19.73;6.85;;;13.40;99.90;;;;;;5053444;28;20639;-88
2021/05/18 05:30:14;;;;;;;20.40;6.82;;;13.60;99.90;;;;;;5036594;28;20171;-89
2021/05/18 05:32:39;;;;;;;21.48;6.25;;;13.80;99.90;;;;;;5053672;28;20365;-89
2021/05/18 05:35:06;;;;;;;15.02;5.55;;;14.00;99.90;;;;;;5053309;28;20581;-89
2021/05/18 05:37:32;;;;;;;13.00;5.50;;;14.10;99.90;;;;;;5053457;28;20616;-89
2021/05/18 05:39:57;;;;;;;11.75;5.35;;;14.30;99.90;;;;;;5053756;28;20183;-88
2021/05/18 05:42:24;;;;;;;17.58;4.85;;;14.40;99.90;;;;;;5033325;28;20184;-88
2021/05/18 05:44:49;;;;;;;14.82;4.82;;;14.40;99.90;;;;;;5045858;28;20214;-88
2021/05/18 05:47:16;;;;;;;13.05;4.65;;;14.30;99.90;;;;;;5053434;28;20228;-88
2021/05/18 05:49:42;;;;;;;20.98;5.00;;;14.30;99.90;;;;;;5066577;28;20172;-89
2021/05/18 05:52:09;;;;;;;12.25;5.10;;;14.30;99.90;;;;;;5070837;28;20202;-88
2021/05/18 05:54:35;;;;;;;14.57;4.55;;;14.20;99.90;;;;;;5066142;28;20176;-89
2021/05/18 05:57:01;;;;;;;12.27;4.45;;;14.10;99.90;;;;;;5052644;28;20210;-88
2021/05/18 05:59:26;;;;;;;13.45;3.95;;;14.10;99.90;;;;;;5053433;28;20175;-88
2021/05/18 06:01:52;;;;;;;11.18;4.07;;;14.10;99.90;;;;;;5052616;28;20203;-89
2021/05/18 06:04:18;;;;;;;9.77;4.35;;;14.10;99.90;;;;;;5052612;28;20586;-89
2021/05/18 06:06:43;;;;;;;20.10;4.75;;;14.20;99.90;;;;;;5061537;28;20202;-88
2021/05/18 06:09:10;;;;;;;10.80;4.00;;;14.20;99.90;;;;;;5070550;28;20183;-90
2021/05/18 06:49:21;;;;;;;15.77;5.38;;;14.80;99.90;;;;;;5055713;28;20230;-92
2021/05/18 06:51:48;;;;;;;15.00;4.90;;;15.00;99.90;;;;;;5055875;28;20608;-92
2021/05/18 06:54:13;;;;;;;13.48;4.20;;;15.50;99.90;;;;;;5055109;28;20171;-90
2021/05/18 06:56:41;;;;;;;11.95;3.55;;;16.20;99.90;;;;;;5055251;28;20187;-92
2021/05/18 07:01:32;;;;;;;12.02;3.55;;;16.60;99.90;;;;;;5061095;28;20278;-93
2021/05/18 07:04:00;;;;;;;14.20;3.40;;;16.50;99.90;;;;;;5074203;28;20239;-91
2021/05/18 07:09:07;;;;;;;8.30;3.65;;;16.00;99.90;;;;;;5056408;28;20183;-92
2021/05/18 07:11:32;;;;;;;10.80;4.47;;;15.90;99.90;;;;;;5056235;28;20572;-92
2021/05/18 07:13:58;;;;;;;15.57;4.05;;;15.80;99.90;;;;;;5055116;28;20176;-91
2021/05/18 07:16:24;;;;;;;12.18;3.80;;;15.60;99.90;;;;;;5054663;28;20734;-93
2021/05/18 07:18:50;;;;;;;13.07;4.22;;;15.50;99.90;;;;;;5054741;28;20177;-91
2021/05/18 07:21:17;;;;;;;8.65;4.30;;;15.20;99.90;;;;;;5055833;28;20168;-90
2021/05/18 07:23:43;;;;;;;11.55;5.38;;;15.10;99.90;;;;;;5054613;28;20175;-91
2021/05/18 07:26:09;;;;;;;15.18;6.35;;;14.90;99.90;;;;;;5055887;28;20202;-92
2021/05/18 07:28:35;;;;;;;8.73;5.22;;;15.10;99.90;;;;;;5055019;28;20236;-90
2021/05/18 07:31:04;;;;;;;9.57;5.43;;;14.90;99.90;;;;;;5055883;28;20257;-91
2021/05/18 07:33:30;;;;;;;13.43;5.43;;;15.00;99.90;;;;;;5055934;28;20254;-92
2021/05/18 07:35:58;;;;;;;11.40;6.15;;;15.30;99.90;;;;;;5054344;28;20270;-91
2021/05/18 07:38:27;;;;;;;7.93;6.03;;;15.60;99.90;;;;;;5055450;28;20270;-93
2021/05/18 07:40:54;;;;;;;7.65;4.38;;;17.40;99.90;;;;;;5042762;28;20175;-91
2021/05/18 07:43:19;;;;;;;8.57;3.72;;;20.70;99.90;;;;;;5054538;28;20171;-92
2021/05/18 07:45:52;;;;;;;5.20;3.47;;;23.90;99.90;;;;;;5054309;28;20290;-93
2021/05/18 08:07:16;;;;;;;5.38;3.35;;;25.00;99.90;;;;;;5054970;28;20194;-94
2021/05/18 08:09:47;;;;;;;5.18;2.60;;;24.10;99.90;;;;;;5054114;28;20179;-93
2021/05/18 08:12:13;;;;;;;3.60;2.40;;;24.80;99.90;;;;;;5054242;28;20167;-93
2021/05/18 08:14:45;;;;;;;6.30;3.05;;;25.10;99.90;;;;;;5054099;28;20245;-93
2021/05/18 08:17:15;;;;;;;4.40;2.85;;;24.20;99.90;;;;;;5060293;28;20164;-92
2021/05/18 08:58:24;;;;;;;1.90;1.35;;;32.10;92.70;;;;;;5053252;28;20250;-81
2021/05/18 10:35:32;;;;;;;4.93;1.50;;;26.20;89.80;;;;;;5056059;28;20215;-79
2021/05/18 10:38:00;;;;;;;3.58;1.80;;;24.90;91.70;;;;;;5054352;28;20182;-77
2021/05/18 10:40:39;;;;;;;3.42;1.50;;;23.60;93.80;;;;;;5056062;28;20179;-75
2021/05/18 10:43:25;;;;;;;2.15;1.55;;;25.20;92.80;;;;;;5055740;28;20171;-77
2021/05/18 10:45:53;;;;;;;1.85;1.27;;;27.00;92.90;;;;;;5054909;28;20191;-78
2021/05/18 10:48:35;;;;;;;2.15;1.30;;;27.80;91.40;;;;;;5061960;28;20191;-75
2021/05/18 10:51:40;;;;;;;6.45;1.40;;;28.70;86.50;;;;;;5065604;28;20475;-75
2021/05/18 10:54:14;;;;;;;3.72;1.50;;;26.10;90.40;;;;;;5055325;28;20166;-75
2021/05/18 10:56:55;;;;;;;2.67;1.27;;;25.80;90.80;;;;;;5053239;28;20187;-75
2021/05/18 10:59:41;;;;;;;4.47;1.52;;;25.60;91.90;;;;;;5054941;28;20167;-75
2021/05/18 11:02:09;;;;;;;1.90;1.15;;;26.50;91.20;;;;;;5055191;28;20159;-75
2021/05/18 11:04:47;;;;;;;5.95;1.30;;;29.60;91.40;;;;;;5054252;28;20174;-75
2021/05/18 11:07:19;;;;;;;2.72;1.25;;;31.30;88.90;;;;;;5056558;28;20185;-76
2021/05/18 11:09:45;;;;;;;1.85;0.98;;;32.30;83.80;;;;;;5055850;28;20628;-75
2021/05/18 11:12:13;;;;;;;7.15;1.40;;;31.10;82.40;;;;;;5055119;28;20186;-75
2021/05/18 11:14:39;;;;;;;2.33;1.20;;;29.60;84.10;;;;;;5055658;28;20583;-77
2021/05/18 11:17:13;;;;;;;3.20;1.10;;;27.40;86.10;;;;;;5055134;28;20265;-76
2021/05/18 11:19:52;;;;;;;4.60;1.17;;;26.40;87.70;;;;;;5055681;28;20162;-76
2021/05/18 11:23:18;;;;;;;2.05;1.10;;;25.80;88.60;;;;;;5055209;28;20182;-75
2021/05/18 11:25:04;;;;;;;0.95;0.88;;;25.50;88.60;;;;;;5054732;28;20183;-76
2021/05/18 11:27:30;;;;;;;1.35;0.90;;;24.80;90.60;;;;;;5053813;28;20210;-76
2021/05/18 11:29:55;;;;;;;2.22;1.20;;;25.20;90.70;;;;;;5053755;28;20163;-76
2021/05/18 11:32:21;;;;;;;2.47;1.10;;;26.40;90.20;;;;;;5054738;28;20167;-78
2021/05/18 11:34:58;;;;;;;6.35;1.38;;;25.30;90.20;;;;;;5054521;28;20179;-75
2021/05/18 11:37:28;;;;;;;1.77;1.20;;;24.50;90.50;;;;;;5054652;28;20167;-75
2021/05/18 11:40:10;;;;;;;1.85;1.10;;;24.40;91.80;;;;;;5054555;28;20179;-78
2021/05/18 11:42:35;;;;;;;1.40;0.90;;;24.80;91.10;;;;;;5054405;28;20269;-76
2021/05/18 11:45:10;;;;;;;2.08;1.33;;;26.60;91.60;;;;;;5054368;28;20163;-76
2021/05/18 11:47:37;;;;;;;1.77;1.40;;;26.50;90.10;;;;;;5054702;28;20204;-75
2021/05/18 11:50:04;;;;;;;1.42;1.00;;;25.80;90.70;;;;;;5054699;28;20167;-75
2021/05/18 11:52:37;;;;;;;2.03;1.30;;;25.10;91.30;;;;;;5054625;28;20258;-76
2021/05/18 11:55:22;;;;;;;4.32;1.05;;;25.50;91.20;;;;;;5048576;28;20221;-76
2021/05/18 11:57:51;;;;;;;1.33;0.95;;;28.10;90.10;;;;;;5054061;28;20174;-76
2021/05/18 12:00:21;;;;;;;1.45;0.93;;;29.00;84.10;;;;;;5054209;28;20616;-83
2021/05/18 12:02:46;;;;;;;3.72;1.00;;;28.80;83.90;;;;;;5054334;28;20167;-81
2021/05/18 12:05:13;;;;;;;3.33;1.25;;;27.30;84.70;;;;;;5054295;28;20515;-82
2021/05/18 12:07:38;;;;;;;3.97;1.20;;;26.70;88.10;;;;;;5052930;28;20183;-83
2021/05/18 12:10:05;;;;;;;2.35;1.10;;;26.40;87.80;;;;;;5052740;28;20575;-83
2021/05/18 12:12:38;;;;;;;3.67;1.05;;;27.20;86.60;;;;;;5052870;28;20211;-82
2021/05/18 12:15:07;;;;;;;3.10;1.13;;;26.30;89.30;;;;;;5053029;28;20244;-84
2021/05/18 12:17:35;;;;;;;1.92;0.93;;;27.50;87.20;;;;;;5052907;28;20171;-82
2021/05/18 12:20:02;;;;;;;2.03;1.08;;;27.20;84.30;;;;;;5053033;28;20175;-82
2021/05/18 12:22:28;;;;;;;3.42;0.93;;;25.30;88.10;;;;;;5052920;28;20177;-83
2021/05/18 12:24:57;;;;;;;2.75;0.80;;;24.30;88.00;;;;;;5054017;28;20168;-82
2021/05/18 12:27:23;;;;;;;1.98;0.80;;;23.60;90.10;;;;;;5052638;28;20199;-83
2021/05/18 12:30:00;;;;;;;2.05;1.10;;;23.50;91.00;;;;;;5052697;28;20276;-82
2021/05/18 12:32:26;;;;;;;1.50;0.98;;;22.90;89.90;;;;;;5052825;28;20216;-82
2021/05/18 12:35:14;;;;;;;0.68;0.68;;;22.40;92.70;;;;;;5053985;28;20164;-81
2021/05/18 12:37:45;;;;;;;1.83;1.00;;;22.40;93.00;;;;;;5052512;28;20621;-83
2021/05/18 12:40:27;;;;;;;2.15;1.42;;;22.30;93.40;;;;;;5053696;28;20187;-82
2021/05/18 12:42:55;;;;;;;1.95;0.90;;;22.40;93.80;;;;;;5052661;28;20175;-82
2021/05/18 12:45:24;;;;;;;2.38;0.80;;;22.60;93.40;;;;;;5053666;28;20168;-83
2021/05/18 12:47:58;;;;;;;3.78;1.00;;;22.70;92.20;;;;;;5053746;28;20683;-82
2021/05/18 12:50:34;;;;;;;1.23;0.95;;;22.90;92.50;;;;;;5053794;28;20158;-84
2021/05/18 12:53:00;;;;;;;2.58;1.08;;;23.00;93.20;;;;;;5051556;28;20171;-75
2021/05/18 12:55:31;;;;;;;1.17;0.65;;;23.10;93.00;;;;;;5053554;28;20543;-75
2021/05/18 12:58:07;;;;;;;4.28;0.88;;;23.00;91.50;;;;;;5053709;28;20186;-75
2021/05/18 13:00:40;;;;;;;1.75;0.88;;;23.10;91.80;;;;;;5053628;28;20147;-76
2021/05/18 13:03:13;;;;;;;1.33;0.80;;;22.80;91.40;;;;;;5053037;28;20676;-76
2021/05/18 13:05:40;;;;;;;1.85;1.02;;;22.90;92.30;;;;;;5053011;28;20193;-76
2021/05/18 13:08:06;;;;;;;3.38;0.80;;;22.90;92.00;;;;;;5052843;28;20175;-76
2021/05/18 13:10:45;;;;;;;7.05;0.70;;;22.90;92.00;;;;;;5053131;28;20175;-75
2021/05/18 13:13:11;;;;;;;1.65;0.88;;;22.60;91.80;;;;;;5053485;28;20166;-75
2021/05/18 13:15:37;;;;;;;3.80;0.82;;;22.50;92.20;;;;;;5056827;28;20163;-75
2021/05/18 13:18:07;;;;;;;1.95;0.70;;;22.70;92.10;;;;;;5061546;28;20573;-76
2021/05/18 13:20:53;;;;;;;3.67;0.85;;;22.90;91.80;;;;;;5059653;28;20175;-76
2021/05/18 13:23:35;;;;;;;3.15;0.60;;;22.80;90.60;;;;;;5057499;28;20167;-76
2021/05/18 13:28:45;;;;;;;0.82;0.63;;;23.00;90.80;;;;;;5056260;28;20795;-76
2021/05/18 13:31:11;;;;;;;1.38;0.85;;;22.90;90.60;;;;;;5057327;28;20258;-76
2021/05/18 13:33:37;;;;;;;1.20;0.80;;;22.70;90.90;;;;;;5063995;28;20175;-76
2021/05/18 13:36:03;;;;;;;1.75;0.63;;;22.40;91.30;;;;;;5061326;28;20699;-75
2021/05/18 13:38:33;;;;;;;2.38;0.70;;;22.50;92.60;;;;;;5056880;28;20183;-76
2021/05/18 13:40:59;;;;;;;3.65;0.75;;;22.50;92.40;;;;;;5057079;28;20534;-76
2021/05/18 13:43:24;;;;;;;3.47;1.10;;;22.80;93.20;;;;;;5056785;28;20167;-76
2021/05/18 13:45:50;;;;;;;1.73;0.68;;;22.90;91.80;;;;;;5057571;28;20245;-76
2021/05/18 13:48:15;;;;;;;0.63;0.50;;;22.90;91.60;;;;;;5056719;28;20616;-76
2021/05/18 13:50:41;;;;;;;7.47;1.10;;;22.80;91.90;;;;;;5056825;28;20628;-76
2021/05/18 13:53:07;;;;;;;1.98;1.00;;;22.70;92.40;;;;;;5057224;28;20250;-76
2021/05/18 13:55:34;;;;;;;1.20;0.70;;;22.30;92.10;;;;;;5055688;28;20175;-76
2021/05/18 13:58:01;;;;;;;1.40;0.60;;;22.00;91.10;;;;;;5056668;28;20191;-76
2021/05/18 14:00:27;;;;;;;2.15;0.80;;;21.90;92.90;;;;;;5056813;28;20195;-76
2021/05/18 14:02:53;;;;;;;2.15;0.70;;;21.60;92.40;;;;;;5056239;28;20636;-76
2021/05/18 14:05:21;;;;;;;0.70;0.70;;;21.50;93.30;;;;;;5055092;28;20233;-76
2021/05/18 14:11:19;;;;;;;1.90;0.95;;;21.10;93.00;;;;;;5055615;28;20179;-76
2021/05/18 14:13:49;;;;;;;2.38;0.80;;;21.10;93.70;;;;;;5056569;28;20160;-76
2021/05/18 14:16:18;;;;;;;1.95;0.70;;;21.30;94.00;;;;;;5055142;28;20178;-76
2021/05/18 14:18:51;;;;;;;3.22;0.55;;;21.50;92.30;;;;;;5055994;28;20258;-76
2021/05/18 14:21:19;;;;;;;4.38;0.75;;;21.40;93.00;;;;;;5054666;28;20270;-76
2021/05/18 14:26:22;;;;;;;2.65;0.80;;;21.00;92.50;;;;;;5055940;28;20225;-76
2021/05/18 14:28:47;;;;;;;1.52;0.70;;;20.60;93.50;;;;;;5056048;28;20167;-76
2021/05/18 14:31:14;;;;;;;3.40;0.75;;;20.60;94.90;;;;;;5055885;28;20265;-76
2021/05/18 14:33:41;;;;;;;2.65;0.68;;;20.80;94.80;;;;;;5055922;28;20190;-76
2021/05/18 14:36:08;;;;;;;3.00;0.70;;;20.80;93.60;;;;;;5055749;28;20534;-77
2021/05/18 14:38:34;;;;;;;1.25;0.77;;;20.60;93.70;;;;;;5054433;28;20182;-75
2021/05/18 14:57:10;;;;;;;1.85;0.70;;;20.80;92.60;;;;;;5056147;28;20597;-76
2021/05/18 14:59:35;;;;;;;0.93;0.70;;;20.90;92.50;;;;;;5053969;28;20195;-76
2021/05/18 15:02:03;;;;;;;3.20;0.70;;;20.90;92.80;;;;;;5055334;28;20199;-76
2021/05/18 15:04:29;;;;;;;3.00;0.68;;;20.90;93.10;;;;;;5055360;28;20172;-76
2021/05/18 15:06:56;;;;;;;0.98;0.60;;;20.70;93.30;;;;;;5055334;28;20204;-76
2021/05/18 15:09:21;;;;;;;1.35;0.60;;;20.80;95.20;;;;;;5054992;28;20184;-77
2021/05/18 15:11:47;;;;;;;1.27;0.75;;;20.90;93.80;;;;;;5054164;28;20594;-76
2021/05/18 15:14:13;;;;;;;5.93;0.80;;;20.70;92.60;;;;;;5055205;28;20246;-77
2021/05/18 15:16:39;;;;;;;2.08;0.93;;;20.60;93.50;;;;;;5055593;28;20184;-76
2021/05/18 15:19:10;;;;;;;1.00;0.73;;;20.60;93.80;;;;;;5055389;28;20692;-76
2021/05/18 15:21:36;;;;;;;1.42;1.02;;;20.30;93.50;;;;;;5055313;28;20178;-76
2021/05/18 15:24:03;;;;;;;16.92;3.92;;;20.20;94.70;;;;;;5055171;28;20217;-76
2021/05/18 15:26:29;;;;;;;5.63;1.10;;;20.30;95.20;;;;;;5055188;28;20196;-76
2021/05/18 15:28:54;;;;;;;6.85;1.98;;;20.50;94.90;;;;;;5054494;28;20183;-76
2021/05/18 15:31:20;;;;;;;0.80;0.70;;;20.70;94.70;;;;;;5055088;28;20251;-78
2021/05/18 15:33:46;;;;;;;1.60;0.80;;;20.80;94.00;;;;;;5054574;28;20171;-77
2021/05/18 15:36:13;;;;;;;4.60;0.70;;;20.70;93.40;;;;;;5053910;28;20171;-77
2021/05/18 15:38:39;;;;;;;2.20;0.75;;;20.50;94.30;;;;;;5054654;28;20705;-77
2021/05/18 15:41:08;;;;;;;2.60;0.80;;;20.40;94.30;;;;;;5052998;28;20180;-76
2021/05/18 15:43:37;;;;;;;1.20;0.80;;;20.20;94.00;;;;;;5070093;28;20167;-76
2021/05/18 15:46:03;;;;;;;4.00;0.80;;;20.10;94.80;;;;;;5073579;28;20195;-77
2021/05/18 15:48:30;;;;;;;1.45;0.70;;;20.30;94.60;;;;;;5054171;28;20644;-77
2021/05/18 15:50:55;;;;;;;8.05;1.05;;;20.50;95.00;;;;;;5053481;28;20167;-77
2021/05/18 15:53:21;;;;;;;3.70;0.70;;;20.80;94.70;;;;;;5054730;28;20682;-78
2021/05/18 15:55:48;;;;;;;0.80;0.70;;;20.90;95.00;;;;;;5054568;28;20210;-78
2021/05/18 15:58:13;;;;;;;2.03;0.80;;;20.90;92.80;;;;;;5051174;28;20626;-77
2021/05/18 16:00:39;;;;;;;4.03;1.20;;;21.10;94.00;;;;;;5061807;28;20194;-78
2021/05/18 16:03:06;;;;;;;2.45;0.90;;;21.10;93.10;;;;;;5068898;28;20546;-77
2021/05/18 16:05:32;;;;;;;4.75;0.70;;;20.90;94.20;;;;;;5054198;28;20176;-77
2021/05/18 16:08:08;;;;;;;1.25;0.57;;;20.60;94.10;;;;;;5053954;28;20175;-78
2021/05/18 16:10:34;;;;;;;1.48;0.70;;;20.40;94.70;;;;;;5053237;28;20167;-78
2021/05/18 16:12:59;;;;;;;5.97;1.02;;;20.20;94.30;;;;;;5054638;28;20180;-77
2021/05/18 16:15:25;;;;;;;0.90;0.60;;;20.10;95.10;;;;;;5052927;28;20167;-77
2021/05/18 16:17:51;;;;;;;1.00;0.90;;;20.10;94.30;;;;;;5053871;28;20254;-77
2021/05/18 16:20:17;;;;;;;1.90;0.85;;;20.00;94.40;;;;;;5046876;28;20179;-76
2021/05/18 16:22:42;;;;;;;2.97;0.85;;;20.00;94.10;;;;;;5053204;28;20168;-76
2021/05/18 16:25:09;;;;;;;1.70;0.70;;;19.90;94.60;;;;;;5053920;28;20167;-76
2021/05/18 16:27:34;;;;;;;2.58;1.00;;;19.80;95.60;;;;;;5053913;28;20230;-78
2021/05/18 16:30:00;;;;;;;1.92;1.13;;;19.90;95.80;;;;;;5032569;28;20181;-77
2021/05/18 16:32:26;;;;;;;1.10;1.00;;;20.10;94.90;;;;;;5047155;28;20602;-78
2021/05/18 16:34:51;;;;;;;3.95;1.92;;;19.90;95.40;;;;;;5053388;28;20166;-80
2021/05/18 16:37:17;;;;;;;1.48;1.10;;;19.80;96.00;;;;;;5053516;28;20172;-80
2021/05/18 16:39:43;;;;;;;3.65;0.90;;;19.70;95.30;;;;;;5068364;28;20182;-81
2021/05/18 16:42:08;;;;;;;1.27;1.00;;;19.50;96.00;;;;;;5072681;28;20182;-81
2021/05/18 16:44:34;;;;;;;5.57;0.98;;;19.30;95.10;;;;;;5072561;28;20223;-81
2021/05/18 16:47:00;;;;;;;5.88;1.00;;;19.20;95.00;;;;;;5067013;28;20206;-81
2021/05/18 16:49:25;;;;;;;2.85;1.05;;;19.30;96.10;;;;;;5052582;28;20209;-81
2021/05/18 16:51:51;;;;;;;2.40;0.90;;;19.50;95.30;;;;;;5053600;28;20207;-81
2021/05/18 16:54:18;;;;;;;2.78;0.82;;;19.40;95.80;;;;;;5052870;28;20168;-81
2021/05/18 16:56:44;;;;;;;1.75;0.90;;;19.50;95.60;;;;;;5052108;28;20191;-81
2021/05/18 16:59:09;;;;;;;1.63;1.20;;;19.60;94.80;;;;;;5052170;28;20198;-81
2021/05/18 17:01:36;;;;;;;6.38;1.10;;;19.60;95.50;;;;;;5052302;28;20687;-81
2021/05/18 17:04:01;;;;;;;2.03;1.05;;;19.60;95.50;;;;;;5052356;28;20182;-81
2021/05/18 17:06:27;;;;;;;2.03;0.80;;;19.60;94.40;;;;;;5053073;28;20203;-81
2021/05/18 17:08:53;;;;;;;7.20;1.20;;;19.70;95.30;;;;;;5053756;28;20179;-81
2021/05/18 17:11:19;;;;;;;2.00;0.93;;;19.60;95.50;;;;;;5053551;28;20168;-81
2021/05/18 17:13:45;;;;;;;2.25;0.70;;;19.70;95.20;;;;;;5056270;28;20163;-81
2021/05/18 17:16:10;;;;;;;2.22;0.80;;;19.70;95.50;;;;;;5052237;28;20266;-81
2021/05/18 17:18:36;;;;;;;3.85;1.08;;;19.80;96.60;;;;;;5053208;28;20171;-81
2021/05/18 17:21:02;;;;;;;0.88;0.80;;;19.90;95.80;;;;;;5054264;28;20179;-82
2021/05/18 17:23:28;;;;;;;8.70;0.90;;;19.70;95.50;;;;;;5052358;28;20164;-81
2021/05/18 17:25:55;;;;;;;2.63;0.85;;;19.60;95.70;;;;;;5032296;28;20575;-81
2021/05/18 17:28:22;;;;;;;1.25;0.93;;;19.60;94.60;;;;;;5037679;28;20168;-81
2021/05/18 17:30:48;;;;;;;1.15;1.00;;;19.60;95.60;;;;;;5052250;28;20241;-80
2021/05/18 17:33:16;;;;;;;3.70;1.00;;;19.60;96.80;;;;;;5053742;28;20174;-81
2021/05/18 17:35:42;;;;;;;2.72;1.02;;;19.50;96.70;;;;;;5035769;28;20175;-81
2021/05/18 17:38:08;;;;;;;2.72;1.02;;;19.50;96.90;;;;;;5035540;28;20214;-81
2021/05/18 17:40:37;;;;;;;1.27;0.73;;;19.50;97.40;;;;;;5052358;28;20183;-81
2021/05/18 17:43:04;;;;;;;3.28;1.10;;;19.40;97.70;;;;;;5053603;28;20170;-81
2021/05/18 17:45:30;;;;;;;3.90;0.88;;;19.20;97.90;;;;;;5051865;28;20168;-81
2021/05/18 17:47:56;;;;;;;1.58;1.05;;;19.10;98.20;;;;;;5052616;28;20203;-81
2021/05/18 17:50:22;;;;;;;1.95;0.60;;;19.00;98.30;;;;;;5053467;28;20659;-81
2021/05/18 17:52:47;;;;;;;2.13;0.82;;;19.00;98.80;;;;;;5042025;28;20183;-80
2021/05/18 17:55:15;;;;;;;1.25;0.95;;;18.80;98.40;;;;;;5057424;28;20176;-81
2021/05/18 17:57:41;;;;;;;6.03;2.20;;;18.60;99.80;;;;;;5052029;28;20179;-81
2021/05/18 18:00:08;;;;;;;7.55;3.05;;;18.10;99.90;;;;;;5051391;28;20258;-81
2021/05/18 18:02:33;;;;;;;5.18;3.70;;;17.60;99.90;;;;;;5052908;28;20172;-81